Time,TemperatureF,DewpointF,PressureIn,WindDirection,WindDirectionDegrees,WindSpeedMPH,WindSpeedGustMPH,Humidity,HourlyPrecipIn,Conditions,Clouds,dailyrainin,SoftwareType,DateUTC
2013-05-02 00:12:00,47.3,43.0,30.44,SSW,195,0.0,-999.0,84,-99.99,,,0.00,weatherlink.com 1.10,2013-05-02 04:12:00,
2013-05-02 00:27:00,47.1,43.0,30.44,SSW,195,0.0,-999.0,85,-99.99,,,0.00,weatherlink.com 1.10,2013-05-02 04:27:00,
2013-05-02 00:42:00,46.6,42.0,30.44,SSW,195,2.0,-999.0,85,-99.99,,,0.00,weatherlink.com 1.10,2013-05-02 04:42:00,
2013-05-02 00:57:00,46.4,42.0,30.44,SSW,195,0.0,-999.0,85,-99.99,,,0.00,weatherlink.com 1.10,2013-05-02 04:57:00,
2013-05-02 01:12:00,46.3,42.0,30.44,SSW,195,0.0,-999.0,86,-99.99,,,0.00,weatherlink.com 1.10,2013-05-02 05:12:00,
2013-05-02 01:27:00,46.0,42.0,30.43,SSW,195,1.0,-999.0,86,-99.99,,,0.00,weatherlink.com 1.10,2013-05-02 05:27:00,
2013-05-02 01:42:00,45.7,42.0,30.43,SSW,196,0.0,-999.0,87,-99.99,,,0.00,weatherlink.com 1.10,2013-05-02 05:42:00,
2013-05-02 01:57:00,45.6,42.0,30.42,SSW,199,1.0,-999.0,87,-99.99,,,0.00,weatherlink.com 1.10,2013-05-02 05:57:00,
2013-05-02 02:12:00,45.5,42.0,30.42,SSW,198,0.0,-999.0,87,-99.99,,,0.00,weatherlink.com 1.10,2013-05-02 06:12:00,
2013-05-02 02:27:00,45.4,42.0,30.41,SSW,198,0.0,-999.0,88,-99.99,,,0.00,weatherlink.com 1.10,2013-05-02 06:27:00,
2013-05-02 02:42:00,45.1,42.0,30.41,SSW,198,0.0,-999.0,88,-99.99,,,0.00,weatherlink.com 1.10,2013-05-02 06:42:00,
2013-05-02 02:57:00,45.1,42.0,30.41,SSW,198,0.0,-999.0,88,-99.99,,,0.00,weatherlink.com 1.10,2013-05-02 06:57:00,
2013-05-02 03:12:00,45.0,42.0,30.42,SSW,198,0.0,-999.0,88,-99.99,,,0.00,weatherlink.com 1.10,2013-05-02 07:12:00,
2013-05-02 03:27:00,44.6,41.0,30.42,SSW,198,0.0,-999.0,88,-99.99,,,0.00,weatherlink.com 1.10,2013-05-02 07:27:00,
2013-05-02 03:42:00,44.1,41.0,30.42,SSW,198,0.0,-999.0,88,-99.99,,,0.00,weatherlink.com 1.10,2013-05-02 07:42:00,
2013-05-02 03:57:00,43.8,41.0,30.42,SSW,198,0.0,-999.0,88,-99.99,,,0.00,weatherlink.com 1.10,2013-05-02 07:57:00,
2013-05-02 04:12:00,43.4,40.0,30.41,SSW,198,0.0,-999.0,89,-99.99,,,0.00,weatherlink.com 1.10,2013-05-02 08:12:00,
2013-05-02 04:27:00,43.0,40.0,30.41,SSW,198,0.0,-999.0,88,-99.99,,,0.00,weatherlink.com 1.10,2013-05-02 08:27:00,
2013-05-02 04:42:00,42.5,39.0,30.42,SSW,198,0.0,-999.0,88,-99.99,,,0.00,weatherlink.com 1.10,2013-05-02 08:42:00,
2013-05-02 04:57:00,42.2,39.0,30.42,SSW,198,0.0,-999.0,88,-99.99,,,0.00,weatherlink.com 1.10,2013-05-02 08:57:00,
2013-05-02 05:12:00,41.9,39.0,30.42,SSW,198,0.0,-999.0,89,-99.99,,,0.00,weatherlink.com 1.10,2013-05-02 09:12:00,
2013-05-02 05:27:00,42.1,39.0,30.41,SSW,198,2.0,-999.0,89,-99.99,,,0.00,weatherlink.com 1.10,2013-05-02 09:27:00,
2013-05-02 05:42:00,42.8,40.0,30.42,SSW,198,0.0,-999.0,90,-99.99,,,0.00,weatherlink.com 1.10,2013-05-02 09:42:00,
2013-05-02 05:57:00,43.0,40.0,30.41,SSW,198,2.0,-999.0,90,-99.99,,,0.00,weatherlink.com 1.10,2013-05-02 09:57:00,
2013-05-02 06:13:00,43.1,40.0,30.41,SSW,198,2.0,-999.0,90,-99.99,,,0.00,weatherlink.com 1.10,2013-05-02 10:13:00,
2013-05-02 06:28:00,43.0,40.0,30.41,SSW,198,0.0,-999.0,90,-99.99,,,0.00,weatherlink.com 1.10,2013-05-02 10:28:00,
2013-05-02 06:43:00,42.9,40.0,30.42,SSW,199,0.0,-999.0,90,-99.99,,,0.00,weatherlink.com 1.10,2013-05-02 10:43:00,
2013-05-02 06:58:00,42.9,40.0,30.43,SSW,199,0.0,-999.0,90,-99.99,,,0.00,weatherlink.com 1.10,2013-05-02 10:58:00,
2013-05-02 07:13:00,43.9,42.0,30.43,SSW,199,0.0,-999.0,91,-99.99,,,0.00,weatherlink.com 1.10,2013-05-02 11:13:00,
2013-05-02 07:28:00,46.5,44.0,30.43,SSW,206,0.0,-999.0,92,-99.99,,,0.00,weatherlink.com 1.10,2013-05-02 11:28:00,
2013-05-02 07:43:00,48.9,47.0,30.43,SSW,206,0.0,-999.0,93,-99.99,,,0.00,weatherlink.com 1.10,2013-05-02 11:43:00,
2013-05-02 07:58:00,51.3,49.0,30.43,SSW,213,0.0,-999.0,93,-99.99,,,0.00,weatherlink.com 1.10,2013-05-02 11:58:00,
2013-05-02 08:13:00,54.2,50.0,30.43,SSW,213,0.0,-999.0,86,-99.99,,,0.00,weatherlink.com 1.10,2013-05-02 12:13:00,
2013-05-02 08:28:00,56.8,49.0,30.43,SSW,213,0.0,-999.0,75,-99.99,,,0.00,weatherlink.com 1.10,2013-05-02 12:28:00,
2013-05-02 08:43:00,58.7,46.0,30.42,SSW,213,0.0,-999.0,62,-99.99,,,0.00,weatherlink.com 1.10,2013-05-02 12:43:00,
2013-05-02 08:58:00,60.1,43.0,30.42,SSW,213,0.0,-999.0,54,-99.99,,,0.00,weatherlink.com 1.10,2013-05-02 12:58:00,
2013-05-02 09:13:00,60.9,42.0,30.42,SSW,213,1.0,-999.0,51,-99.99,,,0.00,weatherlink.com 1.10,2013-05-02 13:13:00,
2013-05-02 09:28:00,62.5,35.0,30.42,SSW,213,0.0,-999.0,36,-99.99,,,0.00,weatherlink.com 1.10,2013-05-02 13:28:00,
2013-05-02 09:43:00,63.4,39.0,30.42,SSW,213,0.0,-999.0,40,-99.99,,,0.00,weatherlink.com 1.10,2013-05-02 13:43:00,
2013-05-02 09:58:00,63.9,38.0,30.42,SSW,213,0.0,-999.0,39,-99.99,,,0.00,weatherlink.com 1.10,2013-05-02 13:58:00,
2013-05-02 10:13:00,65.4,38.0,30.42,SSW,213,0.0,-999.0,37,-99.99,,,0.00,weatherlink.com 1.10,2013-05-02 14:13:00,
2013-05-02 10:28:00,66.1,40.0,30.41,SSW,213,0.0,-999.0,38,-99.99,,,0.00,weatherlink.com 1.10,2013-05-02 14:28:00,
2013-05-02 10:43:00,66.6,41.0,30.42,SSW,213,0.0,-999.0,39,-99.99,,,0.00,weatherlink.com 1.10,2013-05-02 14:43:00,
2013-05-02 10:58:00,67.4,39.0,30.41,SSW,213,0.0,-999.0,36,-99.99,,,0.00,weatherlink.com 1.10,2013-05-02 14:58:00,
2013-05-02 11:13:00,68.6,40.0,30.40,East,79,0.0,-999.0,36,-99.99,,,0.00,weatherlink.com 1.10,2013-05-02 15:13:00,
2013-05-02 11:28:00,68.7,41.0,30.39,ENE,73,0.0,-999.0,36,-99.99,,,0.00,weatherlink.com 1.10,2013-05-02 15:28:00,
2013-05-02 11:43:00,69.3,41.0,30.39,NE,51,1.0,-999.0,36,-99.99,,,0.00,weatherlink.com 1.10,2013-05-02 15:43:00,
2013-05-02 11:58:00,69.9,40.0,30.38,ENE,72,0.0,-999.0,34,-99.99,,,0.00,weatherlink.com 1.10,2013-05-02 15:58:00,
2013-05-02 12:13:00,70.3,41.0,30.37,NE,51,3.0,-999.0,35,-99.99,,,0.00,weatherlink.com 1.10,2013-05-02 16:13:00,
2013-05-02 12:29:00,71.3,42.0,30.37,ENE,72,1.0,-999.0,35,-99.99,,,0.00,weatherlink.com 1.10,2013-05-02 16:29:00,
2013-05-02 12:44:00,71.4,41.0,30.37,NE,53,0.0,-999.0,33,-99.99,,,0.00,weatherlink.com 1.10,2013-05-02 16:44:00,
2013-05-02 12:59:00,72.4,41.0,30.36,ENE,72,0.0,-999.0,32,-99.99,,,0.00,weatherlink.com 1.10,2013-05-02 16:59:00,
2013-05-02 13:14:00,73.0,43.0,30.35,NE,55,4.0,-999.0,34,-99.99,,,0.00,weatherlink.com 1.10,2013-05-02 17:14:00,
2013-05-02 13:29:00,73.5,41.0,30.35,East,81,0.0,-999.0,31,-99.99,,,0.00,weatherlink.com 1.10,2013-05-02 17:29:00,
2013-05-02 13:44:00,73.4,44.0,30.35,South,184,1.0,-999.0,35,-99.99,,,0.00,weatherlink.com 1.10,2013-05-02 17:44:00,
2013-05-02 13:59:00,75.0,44.0,30.34,ENE,74,7.0,-999.0,33,-99.99,,,0.00,weatherlink.com 1.10,2013-05-02 17:59:00,
2013-05-02 14:14:00,74.2,43.0,30.35,East,84,0.0,-999.0,33,-99.99,,,0.00,weatherlink.com 1.10,2013-05-02 18:14:00,
2013-05-02 14:29:00,72.7,44.0,30.34,WSW,253,3.0,-999.0,36,-99.99,,,0.00,weatherlink.com 1.10,2013-05-02 18:29:00,
2013-05-02 14:44:00,72.4,45.0,30.33,SSW,211,2.0,-999.0,38,-99.99,,,0.00,weatherlink.com 1.10,2013-05-02 18:44:00,
2013-05-02 14:59:00,70.5,41.0,30.34,SSW,202,5.0,-999.0,34,-99.99,,,0.00,weatherlink.com 1.10,2013-05-02 18:59:00,
2013-05-02 15:14:00,71.8,43.0,30.34,SSW,192,6.0,-999.0,36,-99.99,,,0.00,weatherlink.com 1.10,2013-05-02 19:14:00,
2013-05-02 15:29:00,70.1,43.0,30.34,SW,222,0.0,-999.0,38,-99.99,,,0.00,weatherlink.com 1.10,2013-05-02 19:29:00,
2013-05-02 15:44:00,69.7,44.0,30.34,SSE,163,4.0,-999.0,40,-99.99,,,0.00,weatherlink.com 1.10,2013-05-02 19:44:00,
2013-05-02 15:59:00,69.6,43.0,30.33,SSW,201,2.0,-999.0,38,-99.99,,,0.00,weatherlink.com 1.10,2013-05-02 19:59:00,
2013-05-02 16:14:00,70.5,44.0,30.33,WSW,237,2.0,-999.0,38,-99.99,,,0.00,weatherlink.com 1.10,2013-05-02 20:14:00,
2013-05-02 16:29:00,70.4,44.0,30.33,South,184,0.0,-999.0,39,-99.99,,,0.00,weatherlink.com 1.10,2013-05-02 20:29:00,
2013-05-02 16:44:00,70.2,43.0,30.33,ENE,78,4.0,-999.0,37,-99.99,,,0.00,weatherlink.com 1.10,2013-05-02 20:44:00,
2013-05-02 16:59:00,69.2,40.0,30.34,ESE,104,3.0,-999.0,34,-99.99,,,0.00,weatherlink.com 1.10,2013-05-02 20:59:00,
2013-05-02 17:14:00,67.8,38.0,30.34,ENE,62,11.0,-999.0,34,-99.99,,,0.00,weatherlink.com 1.10,2013-05-02 21:14:00,
2013-05-02 17:29:00,65.1,42.0,30.35,ENE,69,2.0,-999.0,44,-99.99,,,0.00,weatherlink.com 1.10,2013-05-02 21:29:00,
2013-05-02 17:44:00,63.1,44.0,30.36,ENE,76,10.0,-999.0,50,-99.99,,,0.00,weatherlink.com 1.10,2013-05-02 21:44:00,
2013-05-02 17:59:00,62.2,45.0,30.36,ENE,68,6.0,-999.0,54,-99.99,,,0.00,weatherlink.com 1.10,2013-05-02 21:59:00,
2013-05-02 18:14:00,61.7,45.0,30.36,East,85,5.0,-999.0,55,-99.99,,,0.00,weatherlink.com 1.10,2013-05-02 22:14:00,
2013-05-02 18:29:00,60.7,45.0,30.37,NE,41,9.0,-999.0,57,-99.99,,,0.00,weatherlink.com 1.10,2013-05-02 22:29:00,
2013-05-02 18:44:00,59.5,44.0,30.38,ENE,74,1.0,-999.0,58,-99.99,,,0.00,weatherlink.com 1.10,2013-05-02 22:44:00,
2013-05-02 18:59:00,58.2,44.0,30.38,NE,56,4.0,-999.0,59,-99.99,,,0.00,weatherlink.com 1.10,2013-05-02 22:59:00,
2013-05-02 19:14:00,56.9,42.0,30.39,NE,55,1.0,-999.0,57,-99.99,,,0.00,weatherlink.com 1.10,2013-05-02 23:14:00,
2013-05-02 19:29:00,55.5,41.0,30.41,ENE,73,3.0,-999.0,59,-99.99,,,0.00,weatherlink.com 1.10,2013-05-02 23:29:00,
2013-05-02 19:44:00,54.3,43.0,30.41,ENE,72,2.0,-999.0,66,-99.99,,,0.00,weatherlink.com 1.10,2013-05-02 23:44:00,
2013-05-02 19:59:00,52.7,44.0,30.43,ENE,65,0.0,-999.0,71,-99.99,,,0.00,weatherlink.com 1.10,2013-05-02 23:59:00,
2013-05-02 20:14:00,51.5,43.0,30.44,East,81,7.0,-999.0,74,-99.99,,,0.00,weatherlink.com 1.10,2013-05-03 00:14:00,
2013-05-02 20:29:00,50.0,42.0,30.44,ENE,75,6.0,-999.0,73,-99.99,,,0.00,weatherlink.com 1.10,2013-05-03 00:29:00,
2013-05-02 20:44:00,49.6,42.0,30.45,NE,49,1.0,-999.0,74,-99.99,,,0.00,weatherlink.com 1.10,2013-05-03 00:44:00,
2013-05-02 20:59:00,49.1,42.0,30.45,ENE,60,4.0,-999.0,75,-99.99,,,0.00,weatherlink.com 1.10,2013-05-03 00:59:00,
2013-05-02 21:14:00,48.9,42.0,30.45,ENE,69,4.0,-999.0,76,-99.99,,,0.00,weatherlink.com 1.10,2013-05-03 01:14:00,
2013-05-02 21:29:00,48.8,42.0,30.45,ENE,68,1.0,-999.0,76,-99.99,,,0.00,weatherlink.com 1.10,2013-05-03 01:29:00,
2013-05-02 21:44:00,48.8,42.0,30.44,NE,55,0.0,-999.0,76,-99.99,,,0.00,weatherlink.com 1.10,2013-05-03 01:44:00,
2013-05-02 21:59:00,48.8,41.0,30.44,NE,54,0.0,-999.0,75,-99.99,,,0.00,weatherlink.com 1.10,2013-05-03 01:59:00,
2013-05-02 22:14:00,48.7,41.0,30.43,NE,54,0.0,-999.0,75,-99.99,,,0.00,weatherlink.com 1.10,2013-05-03 02:14:00,
2013-05-02 22:29:00,48.3,40.0,30.43,NE,54,2.0,-999.0,74,-99.99,,,0.00,weatherlink.com 1.10,2013-05-03 02:29:00,
2013-05-02 22:44:00,47.9,40.0,30.43,NE,47,0.0,-999.0,74,-99.99,,,0.00,weatherlink.com 1.10,2013-05-03 02:44:00,
2013-05-02 22:59:00,47.5,40.0,30.44,NE,47,0.0,-999.0,76,-99.99,,,0.00,weatherlink.com 1.10,2013-05-03 02:59:00,
2013-05-02 23:14:00,47.0,40.0,30.44,NE,46,0.0,-999.0,76,-99.99,,,0.00,weatherlink.com 1.10,2013-05-03 03:14:00,
2013-05-02 23:29:00,46.4,39.0,30.44,North,9,1.0,-999.0,76,-99.99,,,0.00,weatherlink.com 1.10,2013-05-03 03:29:00,
2013-05-02 23:44:00,45.9,39.0,30.44,NNE,16,0.0,-999.0,78,-99.99,,,0.00,weatherlink.com 1.10,2013-05-03 03:44:00,
2013-05-02 23:59:00,45.4,39.0,30.44,NNE,16,0.0,-999.0,78,-99.99,,,0.00,weatherlink.com 1.10,2013-05-03 03:59:00,